map of RAE home
RAE - Airport
Location
City:  Arar, Saudi Arabia
Name:Arar Airport
ICAO:OERR
IATA:RAE

Details
Type:Airport (Aerodrome, Airfield)
Use:Public/Civil, International (customs port of entry)
Latitude:3054'24"N (30.906667)
Longitude:4108'18"E (41.138333)
Elevation:1819 ft (554 m)
Variation:4.47E (WMM2015 magnetic declination)
0.07 annual change
Runways:1
Longest:10007 × 148 ft (3050 × 45 m), paved

Time
Time Zone:UTC+3
Local Time:

Weather
METAR:OERR 141000Z 11009KT 7000 BKN030 17/17 Q1010 NOSIG
TAF:OERR 141100Z 1412/1518 05006G16KT 9999 SCT040 BKN100
TEMPO 1412/1424 5000 TSRA FEW035CB BKN040
BECMG 1422/1424 VRB03KT

Related Locations
Nearby:
Farthest:GMR: 11841 mi / 19056 km
Mangareva [Totegegie], Gambier Islands, PF

Find:

   beyond  
but within

Other Information
Maps:
NOTAMs:
Links:
Sources:

  
  • flag of Saudi Arabia
  

Sectional Chart

Flight Planning
at skyvector.com

Satellite Image

Google Maps Satellite view

 

Copyright © 2004-2018 Karl L. Swartz. All rights reserved.
The Great Circle Mapper name and logo are trademarks of the Great Circle Mapper.
All other trademarks mentioned herein belong to their respective owners.
Please see credits for attibutions and further copyright information.

  Follow gcmap on Facebook Follow gcmap on Twitter Follow gcmap on Google+ GCmap on LinkedIn

hCard Microformat

Geo Microformat